Time;durP1;ratioP1;P1;durP2;ratioP2;P2;SDS_P1;SDS_P2;PMS_P1;PMS_P2;Temp;Humidity;BMP_temperature;BMP_pressure;BME280_temperature;BME280_humidity;BME280_pressure;Samples;Min_cycle;Max_cycle;Signal;HPM_P1;HPM_P2
2022/08/15 00:00:01;;;;;;;3.58;2.50;;;;;;;;;;5055196;28;20401;-90
2022/08/15 00:02:27;;;;;;;3.13;2.50;;;;;;;;;;5045222;28;20975;-89
2022/08/15 00:04:53;;;;;;;3.10;2.37;;;;;;;;;;5035149;28;20371;-90
2022/08/15 00:07:19;;;;;;;3.35;2.63;;;;;;;;;;5035175;28;20405;-89
2022/08/15 00:09:45;;;;;;;3.78;2.63;;;;;;;;;;5035086;28;20375;-91
2022/08/15 00:12:11;;;;;;;2.70;2.50;;;;;;;;;;5035139;28;20372;-89
2022/08/15 00:14:37;;;;;;;3.83;2.85;;;;;;;;;;5035042;28;20740;-90
2022/08/15 00:17:09;;;;;;;3.42;3.13;;;;;;;;;;5035270;28;20470;-90
2022/08/15 00:19:36;;;;;;;2.75;2.55;;;;;;;;;;5035169;28;20393;-88
2022/08/15 00:22:04;;;;;;;4.30;2.85;;;;;;;;;;5034884;28;20383;-90
2022/08/15 00:24:32;;;;;;;3.92;2.95;;;;;;;;;;5034842;28;20379;-90
2022/08/15 00:26:59;;;;;;;3.72;3.00;;;;;;;;;;5016922;28;20976;-89
2022/08/15 00:29:26;;;;;;;5.53;2.93;;;;;;;;;;5050969;28;20405;-89
2022/08/15 00:31:56;;;;;;;3.13;2.90;;;;;;;;;;5052539;28;20369;-89
2022/08/15 00:34:22;;;;;;;4.73;3.10;;;;;;;;;;5054854;28;20412;-89
2022/08/15 00:36:50;;;;;;;3.27;2.80;;;;;;;;;;5054566;28;20460;-89
2022/08/15 00:39:16;;;;;;;4.70;2.95;;;;;;;;;;5054040;28;20378;-88
2022/08/15 00:41:42;;;;;;;3.42;3.03;;;;;;;;;;5054407;28;20382;-88
2022/08/15 00:44:17;;;;;;;3.33;2.97;;;;;;;;;;5054379;28;20373;-88
2022/08/15 00:46:44;;;;;;;3.25;2.80;;;;;;;;;;5055054;28;20405;-89
2022/08/15 00:49:12;;;;;;;5.97;3.22;;;;;;;;;;5054348;28;20397;-89
2022/08/15 00:51:39;;;;;;;4.20;3.20;;;;;;;;;;5054516;28;20727;-90
2022/08/15 00:54:08;;;;;;;3.83;3.40;;;;;;;;;;5051242;28;20389;-89
2022/08/15 00:56:36;;;;;;;3.95;3.00;;;;;;;;;;5034567;28;20390;-91
2022/08/15 00:59:02;;;;;;;5.32;3.40;;;;;;;;;;5034462;28;20453;-90
2022/08/15 01:01:28;;;;;;;3.58;3.28;;;;;;;;;;5034127;28;20383;-89
2022/08/15 01:03:55;;;;;;;3.90;3.40;;;;;;;;;;5034073;28;20390;-89
2022/08/15 01:06:21;;;;;;;3.90;3.17;;;;;;;;;;5033987;28;20436;-88
2022/08/15 01:08:48;;;;;;;4.93;3.20;;;;;;;;;;5034082;28;20433;-88
2022/08/15 01:11:24;;;;;;;5.22;3.38;;;;;;;;;;5034051;28;20379;-89
2022/08/15 01:13:52;;;;;;;3.33;3.03;;;;;;;;;;5033901;28;20449;-87
2022/08/15 01:16:18;;;;;;;5.68;3.40;;;;;;;;;;5034157;28;20390;-89
2022/08/15 01:18:44;;;;;;;6.10;3.67;;;;;;;;;;5033780;28;20928;-87
2022/08/15 01:21:15;;;;;;;5.28;3.60;;;;;;;;;;5033856;28;20514;-87
2022/08/15 01:23:48;;;;;;;3.55;3.10;;;;;;;;;;5034002;28;20371;-85
2022/08/15 01:26:15;;;;;;;4.00;3.58;;;;;;;;;;5033750;28;20406;-86
2022/08/15 01:28:43;;;;;;;4.53;3.10;;;;;;;;;;5043928;28;20388;-87
2022/08/15 01:31:11;;;;;;;3.60;3.03;;;;;;;;;;5053963;28;20385;-87
2022/08/15 01:33:39;;;;;;;4.35;3.50;;;;;;;;;;5053483;28;20385;-86
2022/08/15 01:36:05;;;;;;;4.03;3.45;;;;;;;;;;5053696;28;20413;-85
2022/08/15 01:38:31;;;;;;;3.25;2.95;;;;;;;;;;5053440;28;20859;-86
2022/08/15 01:41:00;;;;;;;4.30;3.28;;;;;;;;;;5053279;28;20381;-87
2022/08/15 01:43:30;;;;;;;3.35;2.80;;;;;;;;;;5053718;28;20435;-86
2022/08/15 01:45:58;;;;;;;3.60;3.10;;;;;;;;;;5053110;28;20437;-87
2022/08/15 01:48:27;;;;;;;3.50;3.20;;;;;;;;;;5049204;28;20400;-86
2022/08/15 01:51:00;;;;;;;4.25;3.40;;;;;;;;;;5040060;28;20432;-86
2022/08/15 01:53:30;;;;;;;4.55;3.17;;;;;;;;;;5037712;28;20413;-87
2022/08/15 01:56:18;;;;;;;3.20;2.90;;;;;;;;;;5051455;28;20431;-86
2022/08/15 01:58:45;;;;;;;3.65;3.20;;;;;;;;;;5052758;28;20374;-87
2022/08/15 02:01:13;;;;;;;3.50;3.20;;;;;;;;;;5035189;28;20901;-87
2022/08/15 02:03:40;;;;;;;4.55;2.92;;;;;;;;;;5053178;28;20468;-87
2022/08/15 02:06:12;;;;;;;3.55;2.95;;;;;;;;;;5052753;28;20411;-88
2022/08/15 02:08:39;;;;;;;3.42;3.13;;;;;;;;;;5052876;28;20387;-86
2022/08/15 02:11:10;;;;;;;3.77;3.40;;;;;;;;;;5052835;28;20399;-87
2022/08/15 02:13:37;;;;;;;3.65;3.03;;;;;;;;;;5052985;28;20742;-86
2022/08/15 02:16:03;;;;;;;3.13;2.83;;;;;;;;;;5052699;28;20405;-87
2022/08/15 02:18:30;;;;;;;4.13;3.42;;;;;;;;;;5036436;28;20445;-87
2022/08/15 02:20:57;;;;;;;3.67;3.15;;;;;;;;;;5037735;28;20759;-88
2022/08/15 02:23:23;;;;;;;3.60;3.30;;;;;;;;;;5045504;28;20435;-87
2022/08/15 02:25:50;;;;;;;3.60;3.30;;;;;;;;;;5051005;28;20420;-89
2022/08/15 02:28:16;;;;;;;3.93;3.53;;;;;;;;;;5051180;28;20832;-86
2022/08/15 02:30:43;;;;;;;3.80;3.50;;;;;;;;;;5050452;28;20460;-87
2022/08/15 02:33:09;;;;;;;3.88;3.58;;;;;;;;;;5051934;28;20749;-88
2022/08/15 02:35:35;;;;;;;4.20;3.30;;;;;;;;;;5050216;28;20385;-88
2022/08/15 02:38:04;;;;;;;4.57;3.60;;;;;;;;;;5050348;28;20385;-87
2022/08/15 02:40:30;;;;;;;4.03;3.57;;;;;;;;;;5050135;28;20373;-88
2022/08/15 02:42:56;;;;;;;4.05;3.67;;;;;;;;;;5032488;28;20748;-87
2022/08/15 02:45:22;;;;;;;3.70;3.38;;;;;;;;;;5049998;28;20381;-89
2022/08/15 02:47:48;;;;;;;5.90;3.80;;;;;;;;;;5050081;28;20374;-87
2022/08/15 02:50:15;;;;;;;4.47;3.63;;;;;;;;;;5051471;28;20460;-89
2022/08/15 02:52:42;;;;;;;3.70;3.40;;;;;;;;;;5048877;28;20392;-88
2022/08/15 02:55:09;;;;;;;3.72;3.42;;;;;;;;;;5038185;28;20381;-88
2022/08/15 02:57:35;;;;;;;3.75;3.10;;;;;;;;;;5052082;28;20409;-89
2022/08/15 03:00:03;;;;;;;3.95;3.53;;;;;;;;;;5052007;28;20873;-89
2022/08/15 03:02:29;;;;;;;3.70;3.40;;;;;;;;;;5051969;28;20483;-87
2022/08/15 03:04:55;;;;;;;5.25;3.70;;;;;;;;;;5051769;28;20747;-89
2022/08/15 03:07:21;;;;;;;3.50;3.17;;;;;;;;;;5051943;28;20412;-89
2022/08/15 03:09:47;;;;;;;3.78;3.47;;;;;;;;;;5051983;28;20383;-87
2022/08/15 03:12:14;;;;;;;4.03;3.70;;;;;;;;;;5051925;28;20460;-88
2022/08/15 03:14:40;;;;;;;4.15;3.85;;;;;;;;;;5051825;28;20378;-88
2022/08/15 03:17:08;;;;;;;4.85;3.67;;;;;;;;;;5051832;28;20419;-88
2022/08/15 03:19:36;;;;;;;3.92;3.60;;;;;;;;;;5052237;28;20381;-89
2022/08/15 03:22:03;;;;;;;3.42;3.22;;;;;;;;;;5051804;28;20393;-89
2022/08/15 03:24:32;;;;;;;3.75;3.45;;;;;;;;;;5051992;28;20730;-88
2022/08/15 03:26:58;;;;;;;3.50;3.20;;;;;;;;;;5051676;28;20412;-89
2022/08/15 03:29:26;;;;;;;5.45;3.90;;;;;;;;;;5051682;28;20762;-89
2022/08/15 03:31:52;;;;;;;3.53;3.22;;;;;;;;;;5051606;28;20384;-89
2022/08/15 03:34:20;;;;;;;3.47;3.17;;;;;;;;;;5051708;28;20373;-88
2022/08/15 03:36:46;;;;;;;3.60;3.20;;;;;;;;;;5051863;28;20380;-89
2022/08/15 03:39:16;;;;;;;3.70;3.40;;;;;;;;;;5051685;28;20386;-88
2022/08/15 03:41:43;;;;;;;3.53;3.30;;;;;;;;;;5051522;28;20441;-88
2022/08/15 03:44:10;;;;;;;3.33;3.03;;;;;;;;;;5051723;28;20392;-88
2022/08/15 03:46:36;;;;;;;3.60;3.30;;;;;;;;;;5051100;28;20397;-90
2022/08/15 03:49:02;;;;;;;3.33;3.10;;;;;;;;;;5051673;28;20397;-88
2022/08/15 03:51:28;;;;;;;3.40;3.10;;;;;;;;;;5051807;28;20731;-88
2022/08/15 03:53:56;;;;;;;3.40;2.80;;;;;;;;;;5051673;28;20448;-89
2022/08/15 03:56:24;;;;;;;3.17;2.85;;;;;;;;;;5051474;28;20382;-88
2022/08/15 03:58:51;;;;;;;3.10;2.80;;;;;;;;;;5051795;28;20373;-89
2022/08/15 04:01:25;;;;;;;3.83;3.00;;;;;;;;;;5051438;28;20855;-88
2022/08/15 04:03:52;;;;;;;3.33;3.03;;;;;;;;;;5051886;28;20386;-88
2022/08/15 04:06:20;;;;;;;3.22;2.92;;;;;;;;;;5052069;28;20414;-88
2022/08/15 04:08:47;;;;;;;4.13;2.70;;;;;;;;;;5051500;28;20381;-90
2022/08/15 04:11:14;;;;;;;3.00;2.80;;;;;;;;;;5051804;28;20369;-89
2022/08/15 04:13:40;;;;;;;3.70;2.85;;;;;;;;;;5052909;28;20378;-90
2022/08/15 04:16:07;;;;;;;3.20;2.90;;;;;;;;;;5055045;28;20846;-89
2022/08/15 04:18:34;;;;;;;2.88;2.67;;;;;;;;;;5054972;28;20377;-88
2022/08/15 04:21:01;;;;;;;3.22;3.00;;;;;;;;;;5055112;28;20800;-89
2022/08/15 04:23:28;;;;;;;4.23;2.83;;;;;;;;;;5055003;28;20377;-88
2022/08/15 04:25:54;;;;;;;3.33;3.00;;;;;;;;;;5054986;28;20789;-90
2022/08/15 04:28:21;;;;;;;3.22;3.00;;;;;;;;;;5054766;28;20370;-89
2022/08/15 04:30:48;;;;;;;3.10;2.90;;;;;;;;;;5054718;28;20382;-88
2022/08/15 04:33:22;;;;;;;3.88;2.92;;;;;;;;;;5054861;28;20381;-88
2022/08/15 04:35:53;;;;;;;3.22;2.92;;;;;;;;;;5054090;28;20478;-88
2022/08/15 04:38:19;;;;;;;3.25;2.95;;;;;;;;;;5054567;28;20473;-90
2022/08/15 04:40:46;;;;;;;3.67;2.80;;;;;;;;;;5054489;28;20456;-88
2022/08/15 04:43:12;;;;;;;3.15;2.85;;;;;;;;;;5054474;28;20420;-88
2022/08/15 04:45:40;;;;;;;3.20;2.90;;;;;;;;;;5054326;28;20409;-88
2022/08/15 04:48:06;;;;;;;3.60;2.90;;;;;;;;;;5054432;28;20377;-88
2022/08/15 04:50:34;;;;;;;3.20;2.90;;;;;;;;;;5054417;28;20735;-88
2022/08/15 04:53:00;;;;;;;3.00;2.67;;;;;;;;;;5051077;28;20468;-88
2022/08/15 04:55:27;;;;;;;3.20;2.90;;;;;;;;;;5045914;28;20457;-89
2022/08/15 04:57:53;;;;;;;3.95;3.35;;;;;;;;;;5042610;28;20464;-88
2022/08/15 05:00:21;;;;;;;3.00;2.70;;;;;;;;;;5054355;28;20374;-90
2022/08/15 05:03:00;;;;;;;3.63;3.03;;;;;;;;;;5054199;28;20386;-88
2022/08/15 05:05:27;;;;;;;3.08;2.88;;;;;;;;;;5023009;28;20378;-89
2022/08/15 05:07:53;;;;;;;3.50;3.20;;;;;;;;;;5041229;28;20744;-88
2022/08/15 05:10:19;;;;;;;3.80;3.35;;;;;;;;;;5034039;28;20383;-88
2022/08/15 05:12:45;;;;;;;4.32;3.20;;;;;;;;;;5034405;28;20386;-90
2022/08/15 05:15:12;;;;;;;3.05;2.85;;;;;;;;;;5033968;28;20379;-90
2022/08/15 05:17:39;;;;;;;3.90;2.92;;;;;;;;;;5034047;28;20456;-89
2022/08/15 05:20:06;;;;;;;3.13;2.83;;;;;;;;;;5033921;28;20387;-88
2022/08/15 05:22:32;;;;;;;4.77;3.20;;;;;;;;;;5033933;28;20465;-90
2022/08/15 05:24:58;;;;;;;3.50;3.20;;;;;;;;;;5033753;28;20445;-87
2022/08/15 05:27:25;;;;;;;3.28;2.97;;;;;;;;;;5033723;28;20418;-86
2022/08/15 05:29:54;;;;;;;4.43;3.15;;;;;;;;;;5045292;28;20468;-89
2022/08/15 05:32:20;;;;;;;3.37;3.07;;;;;;;;;;5034894;28;20397;-88
2022/08/15 05:34:47;;;;;;;3.42;3.10;;;;;;;;;;5052734;28;20393;-88
2022/08/15 05:37:14;;;;;;;3.40;3.17;;;;;;;;;;5053185;28;20724;-90
2022/08/15 05:39:40;;;;;;;3.60;3.30;;;;;;;;;;5053183;28;20392;-87
2022/08/15 05:42:21;;;;;;;3.95;3.58;;;;;;;;;;5053383;28;20393;-88
2022/08/15 05:44:57;;;;;;;3.67;3.38;;;;;;;;;;5052863;28;20459;-87
2022/08/15 05:47:26;;;;;;;3.45;3.20;;;;;;;;;;5053458;28;20470;-88
2022/08/15 05:49:54;;;;;;;3.92;3.63;;;;;;;;;;5052894;28;20380;-88
2022/08/15 05:52:42;;;;;;;4.00;3.60;;;;;;;;;;5053188;28;20385;-86
2022/08/15 05:55:11;;;;;;;5.15;3.90;;;;;;;;;;5052655;28;20855;-88
2022/08/15 05:57:43;;;;;;;4.20;3.90;;;;;;;;;;5052825;28;20446;-89
2022/08/15 06:00:11;;;;;;;4.20;3.80;;;;;;;;;;5048762;28;20412;-88
2022/08/15 06:02:40;;;;;;;4.30;4.00;;;;;;;;;;5051163;28;20389;-88
2022/08/15 06:05:11;;;;;;;4.43;4.03;;;;;;;;;;5052769;28;20518;-89
2022/08/15 06:07:38;;;;;;;5.53;4.30;;;;;;;;;;5047958;28;20979;-88
2022/08/15 06:10:06;;;;;;;4.40;4.00;;;;;;;;;;5051856;28;20759;-87
2022/08/15 06:12:39;;;;;;;4.10;3.70;;;;;;;;;;5049091;28;20381;-88
2022/08/15 06:15:24;;;;;;;4.03;3.63;;;;;;;;;;5052108;28;20385;-88
2022/08/15 06:17:55;;;;;;;4.13;3.73;;;;;;;;;;5052699;28;20419;-88
2022/08/15 06:20:23;;;;;;;5.07;4.57;;;;;;;;;;5034407;28;20392;-89
2022/08/15 06:22:49;;;;;;;4.30;3.90;;;;;;;;;;5043199;28;20445;-84
2022/08/15 06:25:17;;;;;;;4.65;4.22;;;;;;;;;;5032494;28;20399;-85
2022/08/15 06:27:43;;;;;;;4.70;4.30;;;;;;;;;;5048214;28;20381;-84
2022/08/15 06:30:12;;;;;;;4.53;4.13;;;;;;;;;;5046922;28;20396;-84
2022/08/15 06:32:53;;;;;;;4.90;4.40;;;;;;;;;;5051795;28;20398;-85
2022/08/15 06:35:34;;;;;;;4.18;3.88;;;;;;;;;;5051437;28;20750;-83
2022/08/15 06:38:00;;;;;;;4.40;4.05;;;;;;;;;;5039755;28;20913;-85
2022/08/15 06:40:41;;;;;;;5.22;4.38;;;;;;;;;;5038823;28;20478;-83
2022/08/15 06:43:08;;;;;;;4.75;4.35;;;;;;;;;;5034379;28;20417;-85
2022/08/15 06:45:35;;;;;;;5.00;4.70;;;;;;;;;;5051100;28;20373;-84
2022/08/15 06:48:07;;;;;;;4.70;4.20;;;;;;;;;;5051825;28;20476;-83
2022/08/15 06:51:02;;;;;;;4.93;4.53;;;;;;;;;;5040235;28;20801;-85
2022/08/15 06:53:36;;;;;;;5.10;4.38;;;;;;;;;;5039445;28;20531;-87
2022/08/15 06:56:09;;;;;;;4.60;4.20;;;;;;;;;;5052261;28;20821;-84
2022/08/15 06:58:42;;;;;;;4.15;3.85;;;;;;;;;;5051526;28;20467;-85
2022/08/15 07:01:28;;;;;;;4.28;3.97;;;;;;;;;;5051111;28;20416;-85
2022/08/15 07:04:00;;;;;;;4.10;3.67;;;;;;;;;;5022139;28;20377;-85
2022/08/15 07:06:32;;;;;;;3.55;3.25;;;;;;;;;;5051795;28;20913;-85
2022/08/15 07:09:02;;;;;;;4.10;3.80;;;;;;;;;;5052045;28;20393;-85
2022/08/15 07:11:30;;;;;;;4.22;3.35;;;;;;;;;;5050976;28;20374;-85
2022/08/15 07:13:59;;;;;;;4.13;3.83;;;;;;;;;;5051026;28;20392;-84
2022/08/15 07:16:31;;;;;;;3.65;3.35;;;;;;;;;;5052136;28;20726;-86
2022/08/15 07:18:59;;;;;;;3.60;3.30;;;;;;;;;;5020401;28;20464;-86
2022/08/15 07:21:26;;;;;;;4.27;3.40;;;;;;;;;;5040208;28;20441;-84
2022/08/15 07:24:00;;;;;;;3.50;3.20;;;;;;;;;;5031809;28;20387;-85
2022/08/15 07:26:29;;;;;;;3.70;3.40;;;;;;;;;;5032124;28;20411;-85
2022/08/15 07:28:58;;;;;;;3.85;3.45;;;;;;;;;;5044015;28;20400;-86
2022/08/15 07:31:29;;;;;;;3.60;3.30;;;;;;;;;;5051855;28;20400;-84
2022/08/15 07:33:57;;;;;;;3.28;2.97;;;;;;;;;;5051934;28;20378;-85
2022/08/15 07:36:26;;;;;;;3.05;2.85;;;;;;;;;;5052176;28;20435;-86
2022/08/15 07:38:54;;;;;;;6.03;3.35;;;;;;;;;;5051755;28;20386;-84
2022/08/15 07:41:22;;;;;;;3.28;2.92;;;;;;;;;;5051825;28;20378;-84
2022/08/15 07:43:48;;;;;;;2.88;2.67;;;;;;;;;;5051219;28;20381;-85
2022/08/15 07:46:19;;;;;;;2.90;2.70;;;;;;;;;;5051586;28;20409;-85
2022/08/15 07:48:53;;;;;;;3.03;2.63;;;;;;;;;;5053451;28;20377;-86
2022/08/15 07:51:25;;;;;;;3.00;2.70;;;;;;;;;;5055552;28;20370;-85
2022/08/15 07:53:56;;;;;;;2.50;2.30;;;;;;;;;;5055410;28;20790;-85
2022/08/15 07:56:23;;;;;;;2.70;2.50;;;;;;;;;;5055433;28;20382;-85
2022/08/15 07:58:53;;;;;;;4.22;2.63;;;;;;;;;;5055429;28;20381;-85
2022/08/15 08:01:29;;;;;;;3.38;2.60;;;;;;;;;;5055313;28;20378;-85
2022/08/15 08:04:18;;;;;;;2.55;2.35;;;;;;;;;;5055301;28;20396;-85
2022/08/15 08:06:48;;;;;;;2.40;2.20;;;;;;;;;;5047147;28;20416;-83
2022/08/15 08:09:33;;;;;;;2.70;2.40;;;;;;;;;;5055129;28;20394;-85
2022/08/15 08:12:07;;;;;;;3.13;2.45;;;;;;;;;;5037194;28;20392;-85
2022/08/15 08:14:35;;;;;;;2.92;2.65;;;;;;;;;;5051053;28;20387;-85
2022/08/15 08:17:36;;;;;;;2.85;2.40;;;;;;;;;;5053052;28;20390;-85
2022/08/15 08:20:03;;;;;;;3.38;2.58;;;;;;;;;;5032698;28;20404;-84
2022/08/15 08:22:32;;;;;;;2.67;2.47;;;;;;;;;;5055130;28;20587;-85
2022/08/15 08:25:10;;;;;;;2.43;2.23;;;;;;;;;;5054851;28;20510;-86
2022/08/15 08:27:49;;;;;;;3.22;2.30;;;;;;;;;;5054704;28;20405;-85
2022/08/15 08:30:18;;;;;;;3.05;2.15;;;;;;;;;;5054839;28;20465;-84
2022/08/15 08:32:59;;;;;;;2.95;2.50;;;;;;;;;;5054770;28;20373;-85
2022/08/15 08:35:31;;;;;;;3.25;2.10;;;;;;;;;;5048723;28;20377;-84
2022/08/15 08:38:16;;;;;;;2.10;2.00;;;;;;;;;;5034764;28;20873;-85
2022/08/15 08:43:46;;;;;;;1.80;1.70;;;;;;;;;;5044287;28;20496;-84
2022/08/15 08:46:15;;;;;;;2.22;1.95;;;;;;;;;;5054342;28;20496;-84
2022/08/15 08:48:47;;;;;;;2.27;1.80;;;;;;;;;;5054021;28;20522;-83
2022/08/15 08:51:23;;;;;;;2.50;1.90;;;;;;;;;;5054508;28;20382;-84
2022/08/15 08:53:56;;;;;;;2.17;1.98;;;;;;;;;;5051391;28;20866;-85
2022/08/15 08:56:25;;;;;;;2.70;1.70;;;;;;;;;;5038349;28;20390;-86
2022/08/15 08:58:56;;;;;;;2.33;1.88;;;;;;;;;;5034083;28;20740;-87
2022/08/15 09:01:24;;;;;;;2.33;1.90;;;;;;;;;;5043117;28;20862;-85
2022/08/15 09:03:52;;;;;;;2.03;1.73;;;;;;;;;;5052968;28;20457;-84
2022/08/15 09:06:23;;;;;;;1.90;1.80;;;;;;;;;;5048703;28;20416;-84
2022/08/15 09:09:03;;;;;;;2.10;1.63;;;;;;;;;;5041466;28;20381;-84
2022/08/15 09:11:43;;;;;;;2.83;1.70;;;;;;;;;;5055153;28;20428;-85
2022/08/15 09:14:20;;;;;;;2.10;1.90;;;;;;;;;;5045806;28;20463;-84
2022/08/15 09:16:46;;;;;;;2.63;2.05;;;;;;;;;;5048556;28;20396;-85
2022/08/15 09:19:25;;;;;;;2.05;1.85;;;;;;;;;;5052940;28;20454;-84
2022/08/15 09:21:51;;;;;;;2.22;1.80;;;;;;;;;;5053946;28;20381;-84
2022/08/15 09:24:19;;;;;;;2.00;1.80;;;;;;;;;;5054007;28;20797;-83
2022/08/15 09:27:04;;;;;;;1.88;1.73;;;;;;;;;;5053698;28;20421;-84
2022/08/15 09:29:31;;;;;;;2.13;1.92;;;;;;;;;;5053539;28;20393;-84
2022/08/15 09:32:12;;;;;;;1.90;1.80;;;;;;;;;;5053562;28;20420;-84
2022/08/15 09:34:38;;;;;;;2.17;1.80;;;;;;;;;;5053487;28;20871;-87
2022/08/15 09:37:30;;;;;;;2.90;1.90;;;;;;;;;;5053782;28;20389;-86
2022/08/15 09:40:15;;;;;;;2.70;2.00;;;;;;;;;;5051883;28;20799;-85
2022/08/15 09:42:47;;;;;;;3.47;2.20;;;;;;;;;;5052806;28;20381;-87
2022/08/15 09:45:34;;;;;;;2.83;2.10;;;;;;;;;;5035416;28;20389;-87
2022/08/15 09:48:00;;;;;;;2.20;2.00;;;;;;;;;;5053319;28;20394;-87
2022/08/15 09:50:34;;;;;;;3.03;2.10;;;;;;;;;;5053348;28;20401;-88
2022/08/15 09:53:19;;;;;;;3.17;2.20;;;;;;;;;;5052716;28;20416;-89
2022/08/15 09:55:46;;;;;;;4.10;2.50;;;;;;;;;;5049557;28;20374;-87
2022/08/15 09:58:20;;;;;;;2.58;2.05;;;;;;;;;;5050313;28;20383;-88
2022/08/15 10:01:00;;;;;;;2.88;2.20;;;;;;;;;;5053089;28;20396;-85
2022/08/15 10:03:46;;;;;;;3.07;2.43;;;;;;;;;;5052907;28;20380;-87
2022/08/15 10:06:16;;;;;;;2.33;2.03;;;;;;;;;;5052873;28;20409;-87
2022/08/15 10:08:51;;;;;;;2.30;2.10;;;;;;;;;;5052840;28;20392;-88
2022/08/15 10:11:23;;;;;;;2.20;2.00;;;;;;;;;;5052160;28;20377;-88
2022/08/15 10:13:56;;;;;;;2.20;2.00;;;;;;;;;;5052842;28;20748;-87
2022/08/15 10:16:40;;;;;;;2.63;2.42;;;;;;;;;;5053206;28;20381;-88
2022/08/15 10:19:09;;;;;;;2.30;2.10;;;;;;;;;;5051148;28;20382;-86
2022/08/15 10:21:35;;;;;;;2.35;2.15;;;;;;;;;;5043936;28;20392;-87
2022/08/15 10:24:07;;;;;;;4.07;2.57;;;;;;;;;;5052467;28;20420;-88
2022/08/15 10:26:37;;;;;;;3.85;2.47;;;;;;;;;;5052619;28;20496;-88
2022/08/15 10:29:03;;;;;;;3.78;2.20;;;;;;;;;;5052585;28;20397;-92
2022/08/15 10:31:44;;;;;;;3.50;2.40;;;;;;;;;;5043117;28;20437;-93
2022/08/15 10:34:19;;;;;;;3.72;2.50;;;;;;;;;;5046730;28;20458;-92
2022/08/15 10:37:04;;;;;;;2.78;2.47;;;;;;;;;;5045252;28;20424;-92
2022/08/15 10:39:49;;;;;;;3.55;2.60;;;;;;;;;;5038448;28;20712;-92
2022/08/15 10:42:15;;;;;;;2.57;2.37;;;;;;;;;;5052377;28;20476;-93
2022/08/15 10:44:52;;;;;;;2.60;2.40;;;;;;;;;;5053017;28;20439;-90
2022/08/15 10:47:21;;;;;;;2.75;2.45;;;;;;;;;;5049047;28;20404;-93
2022/08/15 10:49:56;;;;;;;3.13;2.67;;;;;;;;;;5038479;28;20418;-91
2022/08/15 10:52:32;;;;;;;2.63;2.33;;;;;;;;;;5052320;28;20381;-92
2022/08/15 10:55:03;;;;;;;2.85;2.65;;;;;;;;;;5052382;28;20381;-91
2022/08/15 10:57:34;;;;;;;3.30;2.58;;;;;;;;;;5052146;28;20734;-91
2022/08/15 11:00:01;;;;;;;2.57;2.37;;;;;;;;;;5048444;28;20394;-93
2022/08/15 11:02:27;;;;;;;2.60;2.40;;;;;;;;;;5032304;28;20385;-91
2022/08/15 11:04:59;;;;;;;2.60;2.40;;;;;;;;;;5046656;28;20386;-91
2022/08/15 11:07:28;;;;;;;4.45;2.33;;;;;;;;;;5041030;28;20401;-91
2022/08/15 11:09:59;;;;;;;2.90;2.30;;;;;;;;;;5050997;28;20840;-89
2022/08/15 11:12:27;;;;;;;4.22;2.45;;;;;;;;;;5031762;28;20383;-88
2022/08/15 11:14:55;;;;;;;2.38;2.17;;;;;;;;;;5046616;28;20747;-90
2022/08/15 11:17:23;;;;;;;2.30;2.10;;;;;;;;;;5051598;28;20448;-90
2022/08/15 11:19:51;;;;;;;2.25;2.05;;;;;;;;;;5050480;28;20390;-89
2022/08/15 11:22:44;;;;;;;2.20;2.00;;;;;;;;;;5050991;28;20385;-88
2022/08/15 11:25:14;;;;;;;3.17;2.15;;;;;;;;;;5014769;28;20389;-88
2022/08/15 11:27:40;;;;;;;2.53;2.17;;;;;;;;;;5056138;28;20424;-91
2022/08/15 11:30:08;;;;;;;1.92;1.73;;;;;;;;;;5055332;28;20870;-91
2022/08/15 11:32:35;;;;;;;3.30;2.60;;;;;;;;;;5055397;28;20384;-88
2022/08/15 11:35:06;;;;;;;3.20;1.95;;;;;;;;;;5054362;28;20475;-88
2022/08/15 11:37:38;;;;;;;2.37;1.93;;;;;;;;;;5054770;28;20400;-89
2022/08/15 11:40:06;;;;;;;2.00;1.80;;;;;;;;;;5054415;28;20464;-89
2022/08/15 11:42:37;;;;;;;3.50;1.88;;;;;;;;;;5054096;28;20377;-91
2022/08/15 11:45:11;;;;;;;2.10;1.90;;;;;;;;;;5053589;28;20716;-88
2022/08/15 11:47:43;;;;;;;2.55;1.95;;;;;;;;;;5054496;28;20408;-89
2022/08/15 11:50:22;;;;;;;2.30;1.65;;;;;;;;;;5055250;28;20373;-90
2022/08/15 11:52:54;;;;;;;2.25;1.50;;;;;;;;;;5052191;28;20457;-89
2022/08/15 11:55:27;;;;;;;2.10;1.65;;;;;;;;;;5052861;28;20409;-91
2022/08/15 11:57:55;;;;;;;1.90;1.70;;;;;;;;;;5054321;28;20374;-89
2022/08/15 12:00:24;;;;;;;2.60;1.90;;;;;;;;;;5054586;28;20428;-90
2022/08/15 12:02:51;;;;;;;3.35;1.83;;;;;;;;;;5054315;28;20533;-90
2022/08/15 12:05:25;;;;;;;1.92;1.70;;;;;;;;;;5054158;28;20427;-90
2022/08/15 12:07:56;;;;;;;2.75;1.60;;;;;;;;;;5054046;28;20393;-92
2022/08/15 12:10:43;;;;;;;2.78;1.48;;;;;;;;;;5054233;28;20374;-89
2022/08/15 12:13:15;;;;;;;1.83;1.60;;;;;;;;;;5054282;28;20377;-89
2022/08/15 12:15:43;;;;;;;2.17;1.60;;;;;;;;;;5054031;28;20382;-89
2022/08/15 12:18:12;;;;;;;2.80;1.50;;;;;;;;;;5053742;28;20384;-91
2022/08/15 12:20:41;;;;;;;2.08;1.70;;;;;;;;;;5053684;28;20412;-90
2022/08/15 12:23:26;;;;;;;2.22;1.77;;;;;;;;;;5053605;28;20481;-89
2022/08/15 12:25:57;;;;;;;2.15;1.48;;;;;;;;;;5053358;28;20444;-90
2022/08/15 12:28:24;;;;;;;3.00;1.53;;;;;;;;;;5053792;28;20397;-90
2022/08/15 12:30:50;;;;;;;2.78;1.60;;;;;;;;;;5053818;28;20448;-90
2022/08/15 12:33:16;;;;;;;2.10;1.50;;;;;;;;;;5053654;28;20810;-90
2022/08/15 12:35:42;;;;;;;2.35;1.52;;;;;;;;;;5053368;28;20735;-89
2022/08/15 12:38:08;;;;;;;2.63;1.65;;;;;;;;;;5050321;28;20382;-91
2022/08/15 12:40:35;;;;;;;2.15;1.52;;;;;;;;;;5053285;28;20444;-88
2022/08/15 12:43:01;;;;;;;2.35;1.48;;;;;;;;;;5053576;28;20521;-90
2022/08/15 12:45:27;;;;;;;2.17;1.57;;;;;;;;;;5053502;28;20435;-89
2022/08/15 12:47:55;;;;;;;2.25;1.73;;;;;;;;;;5052455;28;20525;-89
2022/08/15 12:50:21;;;;;;;1.73;1.60;;;;;;;;;;5050954;28;20456;-90
2022/08/15 12:52:48;;;;;;;1.88;1.70;;;;;;;;;;5052948;28;20436;-90
2022/08/15 12:55:14;;;;;;;1.60;1.48;;;;;;;;;;5053271;28;20384;-91
2022/08/15 12:57:40;;;;;;;2.40;2.00;;;;;;;;;;5050262;28;20442;-88
2022/08/15 13:00:07;;;;;;;1.67;1.55;;;;;;;;;;5049497;28;20760;-89
2022/08/15 13:02:36;;;;;;;2.20;1.50;;;;;;;;;;5034434;28;20514;-90
2022/08/15 13:05:05;;;;;;;1.95;1.73;;;;;;;;;;5034337;28;20399;-90
2022/08/15 13:07:31;;;;;;;2.85;1.63;;;;;;;;;;5016610;28;20412;-91
2022/08/15 13:09:57;;;;;;;2.55;1.98;;;;;;;;;;5034340;28;20375;-89
2022/08/15 13:12:24;;;;;;;2.47;2.00;;;;;;;;;;5052350;28;20397;-88
2022/08/15 13:14:49;;;;;;;2.00;1.80;;;;;;;;;;5054160;28;20381;-90
2022/08/15 13:17:16;;;;;;;2.60;2.40;;;;;;;;;;5052732;28;20544;-91
2022/08/15 13:25:14;;;;;;;2.92;1.60;;;;;;;;;;5053012;28;20474;-89
2022/08/15 13:27:41;;;;;;;4.90;1.85;;;;;;;;;;5049125;28;20409;-90
2022/08/15 13:30:09;;;;;;;5.60;2.08;;;;;;;;;;5053692;28;20421;-89
2022/08/15 13:32:36;;;;;;;4.80;1.98;;;;;;;;;;5039580;28;20374;-89
2022/08/15 13:35:02;;;;;;;5.07;2.27;;;;;;;;;;5053639;28;20981;-88
2022/08/15 13:37:28;;;;;;;5.97;2.40;;;;;;;;;;5053194;28;20455;-87
2022/08/15 13:39:55;;;;;;;3.25;1.67;;;;;;;;;;5053770;28;20724;-87
2022/08/15 13:42:21;;;;;;;2.25;1.55;;;;;;;;;;5035170;28;20381;-87
2022/08/15 13:44:47;;;;;;;1.70;1.55;;;;;;;;;;5053335;28;20385;-88
2022/08/15 13:47:16;;;;;;;2.75;1.50;;;;;;;;;;5034577;28;20752;-88
2022/08/15 13:49:43;;;;;;;1.67;1.40;;;;;;;;;;5051988;28;20386;-88
2022/08/15 13:52:10;;;;;;;2.03;1.50;;;;;;;;;;5053352;28;20460;-88
2022/08/15 13:54:36;;;;;;;2.20;1.50;;;;;;;;;;5053233;28;20415;-88
2022/08/15 13:57:02;;;;;;;1.83;1.40;;;;;;;;;;5053682;28;20393;-89
2022/08/15 13:59:30;;;;;;;2.10;1.30;;;;;;;;;;5052796;28;20782;-89
2022/08/15 14:01:57;;;;;;;1.38;1.23;;;;;;;;;;5052462;28;20389;-89
2022/08/15 14:04:27;;;;;;;2.33;1.20;;;;;;;;;;5053275;28;20448;-88
2022/08/15 14:06:54;;;;;;;3.00;1.10;;;;;;;;;;5052157;28;20413;-89
2022/08/15 14:09:20;;;;;;;1.30;1.20;;;;;;;;;;5053315;28;20465;-89
2022/08/15 14:11:46;;;;;;;2.17;1.10;;;;;;;;;;5033797;28;20948;-88
2022/08/15 14:14:12;;;;;;;1.45;1.20;;;;;;;;;;5035366;28;20386;-88
2022/08/15 14:16:41;;;;;;;2.25;1.00;;;;;;;;;;5052880;28;20377;-88
2022/08/15 14:19:07;;;;;;;1.60;1.10;;;;;;;;;;5046009;28;20446;-90
2022/08/15 14:21:33;;;;;;;1.33;1.00;;;;;;;;;;5049160;28;20377;-90
2022/08/15 14:24:00;;;;;;;1.10;1.00;;;;;;;;;;5051615;28;20377;-89
2022/08/15 14:26:31;;;;;;;2.03;1.00;;;;;;;;;;5052147;28;20409;-90
2022/08/15 14:29:00;;;;;;;2.08;1.20;;;;;;;;;;5045145;28;20485;-89
2022/08/15 14:31:27;;;;;;;1.02;0.93;;;;;;;;;;5052548;28;20423;-88
2022/08/15 14:33:53;;;;;;;1.23;0.90;;;;;;;;;;5052484;28;20392;-89
2022/08/15 14:36:19;;;;;;;1.33;1.08;;;;;;;;;;5033901;28;20447;-89
2022/08/15 14:38:46;;;;;;;1.50;1.10;;;;;;;;;;5050941;28;20878;-88
2022/08/15 14:41:13;;;;;;;0.98;0.88;;;;;;;;;;5052341;28;20384;-88
2022/08/15 14:43:40;;;;;;;1.27;0.95;;;;;;;;;;5051853;28;20743;-87
2022/08/15 14:46:09;;;;;;;0.88;0.88;;;;;;;;;;5050961;28;20421;-88
2022/08/15 14:48:36;;;;;;;1.00;0.90;;;;;;;;;;5049111;28;20385;-89
2022/08/15 14:51:02;;;;;;;2.40;1.00;;;;;;;;;;5051759;28;20400;-90
2022/08/15 14:53:30;;;;;;;1.30;1.00;;;;;;;;;;5052106;28;20507;-88
2022/08/15 14:55:57;;;;;;;2.17;0.90;;;;;;;;;;5052158;28;20396;-89
2022/08/15 14:58:26;;;;;;;1.45;1.02;;;;;;;;;;5034049;28;20877;-90
2022/08/15 15:00:52;;;;;;;1.13;1.02;;;;;;;;;;5052245;28;20846;-89
2022/08/15 15:03:19;;;;;;;1.15;1.05;;;;;;;;;;5050963;28;20452;-88
2022/08/15 15:05:45;;;;;;;1.38;0.95;;;;;;;;;;5034602;28;20916;-88